createdAt,value
2018-12-31T00:01:08.662Z,75.90
2018-12-31T00:03:36.362Z,75.70
2018-12-31T00:06:03.732Z,75.40
2018-12-31T00:08:31.360Z,75.10
2018-12-31T00:10:58.810Z,75.50
2018-12-31T00:13:26.205Z,75.50
2018-12-31T00:15:53.631Z,75.50
2018-12-31T00:18:21.366Z,74.90
2018-12-31T00:20:49.075Z,75.90
2018-12-31T00:23:16.486Z,76.60
2018-12-31T00:25:44.179Z,77.00
2018-12-31T00:28:11.538Z,76.40
2018-12-31T00:30:38.936Z,76.10
2018-12-31T00:33:06.342Z,76.00
2018-12-31T00:35:33.693Z,77.30
2018-12-31T00:38:01.093Z,77.00
2018-12-31T00:40:28.418Z,76.90
2018-12-31T00:42:59.089Z,77.50
2018-12-31T00:45:25.225Z,77.00
2018-12-31T00:47:52.559Z,76.70
2018-12-31T00:50:19.869Z,76.00
2018-12-31T00:52:47.283Z,76.20
2018-12-31T00:55:14.654Z,76.00
2018-12-31T00:57:42.257Z,75.40
2018-12-31T01:00:09.633Z,76.30
2018-12-31T01:02:36.923Z,76.70
2018-12-31T01:05:04.367Z,76.40
2018-12-31T01:07:31.735Z,75.60
2018-12-31T01:09:59.169Z,75.80
2018-12-31T01:12:26.526Z,77.00
2018-12-31T01:14:54.016Z,77.10
2018-12-31T01:17:21.589Z,76.70
2018-12-31T01:19:48.914Z,77.30
2018-12-31T01:22:16.546Z,78.30
2018-12-31T01:24:43.958Z,77.80
2018-12-31T01:27:11.232Z,77.20
2018-12-31T01:29:38.538Z,78.30
2018-12-31T01:32:05.965Z,77.40
2018-12-31T01:34:33.401Z,77.00
2018-12-31T01:37:00.733Z,77.50
2018-12-31T01:39:28.148Z,77.10
2018-12-31T01:41:55.533Z,76.60
2018-12-31T01:44:22.821Z,75.90
2018-12-31T01:46:50.247Z,75.80
2018-12-31T01:49:17.633Z,75.70
2018-12-31T01:51:45.059Z,76.60
2018-12-31T01:54:12.371Z,77.00
2018-12-31T01:56:39.793Z,78.20
2018-12-31T01:59:07.208Z,78.50
2018-12-31T02:01:34.623Z,78.30
2018-12-31T02:04:01.981Z,78.50
2018-12-31T02:06:29.303Z,78.30
2018-12-31T02:08:56.595Z,78.80
2018-12-31T02:11:23.988Z,79.00
2018-12-31T02:13:51.686Z,79.50
2018-12-31T02:16:18.989Z,78.70
2018-12-31T02:18:46.323Z,79.40
2018-12-31T02:21:13.724Z,80.50
2018-12-31T02:23:41.001Z,79.80
2018-12-31T02:26:08.319Z,81.00
2018-12-31T02:28:35.623Z,81.90
2018-12-31T02:31:02.963Z,81.00
2018-12-31T02:33:30.339Z,80.60
2018-12-31T02:35:57.732Z,80.80
2018-12-31T02:38:25.025Z,80.60
2018-12-31T02:40:52.296Z,81.00
2018-12-31T02:43:19.679Z,79.60
2018-12-31T02:45:47.075Z,80.20
2018-12-31T02:48:14.381Z,79.70
2018-12-31T02:50:41.672Z,80.50
2018-12-31T02:53:09.236Z,80.60
2018-12-31T02:55:36.533Z,79.30
2018-12-31T02:58:03.986Z,79.90
2018-12-31T03:00:31.603Z,80.70
2018-12-31T03:02:59.010Z,80.30
2018-12-31T03:05:26.455Z,80.30
2018-12-31T03:07:53.782Z,79.60
2018-12-31T03:10:21.219Z,79.00
2018-12-31T03:12:48.655Z,79.30
2018-12-31T03:15:16.030Z,80.00
2018-12-31T03:17:43.329Z,81.20
2018-12-31T03:20:10.614Z,81.50
2018-12-31T03:22:37.937Z,82.00
2018-12-31T03:25:05.335Z,81.30
2018-12-31T03:27:32.724Z,81.50
2018-12-31T03:30:00.294Z,83.00
2018-12-31T03:32:27.727Z,83.50
2018-12-31T03:34:55.145Z,84.50
2018-12-31T03:37:22.731Z,84.30
2018-12-31T03:39:50.126Z,84.10
2018-12-31T03:42:17.424Z,83.90
2018-12-31T03:44:44.841Z,82.70
2018-12-31T03:47:12.370Z,81.60
2018-12-31T03:49:39.909Z,82.00
2018-12-31T03:52:07.221Z,80.60
2018-12-31T03:54:34.633Z,81.50
2018-12-31T03:57:02.014Z,82.70
2018-12-31T03:59:29.292Z,83.90
2018-12-31T04:01:56.566Z,85.30
2018-12-31T04:04:23.972Z,84.70
2018-12-31T04:06:51.365Z,83.40
2018-12-31T04:09:18.773Z,84.40
2018-12-31T04:11:46.176Z,84.30
2018-12-31T04:14:13.552Z,84.10
2018-12-31T04:16:41.126Z,85.30
2018-12-31T04:19:08.442Z,83.90
2018-12-31T04:21:35.810Z,83.70
2018-12-31T04:24:03.111Z,82.50
2018-12-31T04:26:30.507Z,82.10
2018-12-31T04:28:57.930Z,81.30
2018-12-31T04:31:25.214Z,80.40
2018-12-31T04:33:52.490Z,80.80
2018-12-31T04:36:19.822Z,81.30
2018-12-31T04:38:47.100Z,82.80
2018-12-31T04:41:14.406Z,82.40
2018-12-31T04:43:41.774Z,81.80
2018-12-31T04:46:09.090Z,81.30
2018-12-31T04:48:36.400Z,81.50
2018-12-31T04:51:03.903Z,80.90
2018-12-31T04:53:31.200Z,80.30
2018-12-31T04:55:58.616Z,79.90
2018-12-31T04:58:25.898Z,79.70
2018-12-31T05:00:53.198Z,78.90
2018-12-31T05:03:20.474Z,79.50
2018-12-31T05:05:47.864Z,78.40
2018-12-31T05:08:15.134Z,78.50
2018-12-31T05:10:42.452Z,78.60
2018-12-31T05:13:09.824Z,78.90
2018-12-31T05:15:37.203Z,78.10
2018-12-31T05:18:04.487Z,78.40
2018-12-31T05:20:31.903Z,78.50
2018-12-31T05:22:59.255Z,78.80
2018-12-31T05:25:26.564Z,78.90
2018-12-31T05:27:53.989Z,79.20
2018-12-31T05:30:21.365Z,78.90
2018-12-31T05:32:48.767Z,78.40
2018-12-31T05:35:16.147Z,77.90
2018-12-31T05:37:43.427Z,78.60
2018-12-31T05:40:10.827Z,79.80
2018-12-31T05:42:38.134Z,81.10
2018-12-31T05:45:05.576Z,80.40
2018-12-31T05:47:33.291Z,81.00
2018-12-31T05:50:00.689Z,82.40
2018-12-31T05:52:27.977Z,81.00
2018-12-31T05:54:55.256Z,81.20
2018-12-31T05:57:22.561Z,81.90
2018-12-31T05:59:50.150Z,81.70
2018-12-31T06:02:17.479Z,81.70
2018-12-31T06:04:44.743Z,81.20
2018-12-31T06:07:12.042Z,82.40
2018-12-31T06:09:39.328Z,83.00
2018-12-31T06:12:06.697Z,84.30
2018-12-31T06:14:34.023Z,83.00
2018-12-31T06:17:01.428Z,84.50
2018-12-31T06:19:29.015Z,84.30
2018-12-31T06:21:56.324Z,85.80
2018-12-31T06:24:23.612Z,84.20
2018-12-31T06:26:51.197Z,84.20
2018-12-31T06:29:18.613Z,83.00
2018-12-31T06:31:45.919Z,83.00
2018-12-31T06:34:13.189Z,83.70
2018-12-31T06:36:40.482Z,83.90
2018-12-31T06:39:07.867Z,83.70
2018-12-31T06:41:35.289Z,83.00
2018-12-31T06:44:02.603Z,82.90
2018-12-31T06:46:29.976Z,83.00
2018-12-31T06:48:57.702Z,83.10
2018-12-31T06:51:25.086Z,83.40
2018-12-31T06:53:52.432Z,84.40
2018-12-31T06:56:19.745Z,83.40
2018-12-31T06:58:47.204Z,83.90
2018-12-31T07:01:14.555Z,83.30
2018-12-31T07:03:42.065Z,83.00
2018-12-31T07:06:09.477Z,82.80
2018-12-31T07:08:36.855Z,82.70
2018-12-31T07:11:04.369Z,82.30
2018-12-31T07:13:31.775Z,81.70
2018-12-31T07:15:59.056Z,81.00
2018-12-31T07:18:26.369Z,81.20
2018-12-31T07:20:53.671Z,81.30
2018-12-31T07:23:21.068Z,80.80
2018-12-31T07:25:48.453Z,82.20
2018-12-31T07:28:15.841Z,82.30
2018-12-31T07:30:43.250Z,82.20
2018-12-31T07:33:10.635Z,82.10
2018-12-31T07:35:38.039Z,83.80
2018-12-31T07:38:05.359Z,83.20
2018-12-31T07:40:32.780Z,82.70
2018-12-31T07:43:00.069Z,82.70
2018-12-31T07:45:27.418Z,82.70
2018-12-31T07:47:54.838Z,82.50
2018-12-31T07:50:22.186Z,83.50
2018-12-31T07:52:49.475Z,83.30
2018-12-31T07:55:16.872Z,83.20
2018-12-31T07:57:44.212Z,83.40
2018-12-31T08:00:11.635Z,84.90
2018-12-31T08:02:39.055Z,85.70
2018-12-31T08:05:06.461Z,84.20
2018-12-31T08:07:33.772Z,83.60
2018-12-31T08:10:01.467Z,82.70
2018-12-31T08:12:28.783Z,81.50
2018-12-31T08:14:56.153Z,82.10
2018-12-31T08:17:23.509Z,83.00
2018-12-31T08:19:50.879Z,82.10
2018-12-31T08:22:18.257Z,81.20
2018-12-31T08:24:45.657Z,82.70
2018-12-31T08:27:13.098Z,82.20
2018-12-31T08:29:40.814Z,82.20
2018-12-31T08:32:08.127Z,81.70
2018-12-31T08:34:35.417Z,80.00
2018-12-31T08:37:02.760Z,79.70
2018-12-31T08:39:30.143Z,80.00
2018-12-31T08:41:57.552Z,79.30
2018-12-31T08:44:24.963Z,78.50
2018-12-31T08:46:52.357Z,78.70
2018-12-31T08:49:20.042Z,78.20
2018-12-31T08:51:47.469Z,78.70
2018-12-31T08:54:14.905Z,78.90
2018-12-31T08:56:42.349Z,79.30
2018-12-31T08:59:09.766Z,80.60
2018-12-31T09:01:37.222Z,80.80
2018-12-31T09:04:04.625Z,80.10
2018-12-31T09:06:32.051Z,79.80
2018-12-31T09:08:59.355Z,79.90
2018-12-31T09:11:26.681Z,80.10
2018-12-31T09:13:54.400Z,79.40
2018-12-31T09:16:22.009Z,79.70
2018-12-31T09:18:49.399Z,80.60
2018-12-31T09:21:16.786Z,80.60
2018-12-31T09:23:44.118Z,80.50
2018-12-31T09:26:11.530Z,79.90
2018-12-31T09:28:39.285Z,79.80
2018-12-31T09:31:07.814Z,80.20
2018-12-31T09:33:35.287Z,80.00
2018-12-31T09:36:02.710Z,80.00
2018-12-31T09:38:30.163Z,81.80
2018-12-31T09:40:57.572Z,81.70
2018-12-31T09:43:24.882Z,81.80
2018-12-31T09:45:52.345Z,81.70
2018-12-31T09:48:19.792Z,81.60
2018-12-31T09:50:47.273Z,82.10
2018-12-31T09:53:14.738Z,81.10
2018-12-31T09:55:42.147Z,80.80
2018-12-31T09:58:09.573Z,79.80
2018-12-31T10:00:36.996Z,79.80
2018-12-31T10:03:04.310Z,80.60
2018-12-31T10:05:31.646Z,81.10
2018-12-31T10:07:59.078Z,80.70
2018-12-31T10:10:26.414Z,80.90
2018-12-31T10:12:53.827Z,81.30
2018-12-31T10:15:21.256Z,81.20
2018-12-31T10:17:48.680Z,80.80
2018-12-31T10:20:16.158Z,80.80
2018-12-31T10:22:43.558Z,81.10
2018-12-31T10:25:11.189Z,81.30
2018-12-31T10:27:38.640Z,80.90
2018-12-31T10:30:06.354Z,82.40
2018-12-31T10:32:33.738Z,84.60
2018-12-31T10:35:01.180Z,84.40
2018-12-31T10:37:28.634Z,85.90
2018-12-31T10:39:56.068Z,85.70
2018-12-31T10:42:23.480Z,84.30
2018-12-31T10:44:51.241Z,82.80
2018-12-31T10:47:18.649Z,82.10
2018-12-31T10:49:46.068Z,81.50
2018-12-31T10:52:13.815Z,83.00
2018-12-31T10:54:41.498Z,82.90
2018-12-31T10:57:09.122Z,81.40
2018-12-31T10:59:36.543Z,81.40
2018-12-31T11:02:04.393Z,81.50
2018-12-31T11:04:31.900Z,80.30
2018-12-31T11:06:59.264Z,79.40
2018-12-31T11:09:26.671Z,79.30
2018-12-31T11:11:54.025Z,80.90
2018-12-31T11:14:21.492Z,81.10
2018-12-31T11:16:48.896Z,81.60
2018-12-31T11:19:16.214Z,81.50
2018-12-31T11:21:43.665Z,82.80
2018-12-31T11:24:12.711Z,82.50
2018-12-31T11:26:40.241Z,81.80
2018-12-31T11:29:07.609Z,81.40
2018-12-31T11:31:34.952Z,81.20
2018-12-31T11:34:02.406Z,81.00
2018-12-31T11:36:29.801Z,80.50
2018-12-31T11:38:57.179Z,80.90
2018-12-31T11:41:24.907Z,80.70
2018-12-31T11:43:52.323Z,81.20
2018-12-31T11:46:19.848Z,82.60
2018-12-31T11:48:47.220Z,82.90
2018-12-31T11:51:14.550Z,83.80
2018-12-31T11:53:42.330Z,83.60
2018-12-31T11:56:09.762Z,82.70
2018-12-31T11:58:37.248Z,82.40
2018-12-31T12:01:04.686Z,82.20
2018-12-31T12:03:32.152Z,80.60
2018-12-31T12:05:59.794Z,80.60
2018-12-31T12:08:27.203Z,80.10
2018-12-31T12:10:54.654Z,79.50
2018-12-31T12:13:22.072Z,79.70
2018-12-31T12:15:49.516Z,80.60
2018-12-31T12:18:16.989Z,80.90
2018-12-31T12:20:44.780Z,81.50
2018-12-31T12:23:12.233Z,80.50
2018-12-31T12:25:40.069Z,79.90
2018-12-31T12:28:07.805Z,79.50
2018-12-31T12:30:35.226Z,78.70
2018-12-31T12:33:02.681Z,78.60
2018-12-31T12:35:30.094Z,80.10
2018-12-31T12:37:57.838Z,80.60
2018-12-31T12:40:25.287Z,79.80
2018-12-31T12:42:52.738Z,81.10
2018-12-31T12:45:20.430Z,81.50
2018-12-31T12:47:47.858Z,80.70
2018-12-31T12:50:15.239Z,80.20
2018-12-31T12:52:43.067Z,79.90
2018-12-31T12:55:11.227Z,81.00
2018-12-31T12:57:38.653Z,80.00
2018-12-31T13:00:06.510Z,79.60
2018-12-31T13:02:33.948Z,79.70
2018-12-31T13:05:03.898Z,79.90
2018-12-31T13:07:30.647Z,80.30
2018-12-31T13:09:58.463Z,79.80
2018-12-31T13:12:25.894Z,80.50
2018-12-31T13:14:53.783Z,80.40
2018-12-31T13:17:21.279Z,79.70
2018-12-31T13:19:48.749Z,80.80
2018-12-31T13:22:16.636Z,80.20
2018-12-31T13:24:44.088Z,80.50
2018-12-31T13:27:11.583Z,80.10
2018-12-31T13:29:39.069Z,79.90
2018-12-31T13:32:06.516Z,81.10
2018-12-31T13:34:34.004Z,81.40
2018-12-31T13:37:01.453Z,80.50
2018-12-31T13:39:28.950Z,79.60
2018-12-31T13:41:56.368Z,78.90
2018-12-31T13:44:24.130Z,78.40
2018-12-31T13:46:51.596Z,78.10
2018-12-31T13:49:19.765Z,78.30
2018-12-31T13:51:47.549Z,77.90
2018-12-31T13:54:14.957Z,77.90
2018-12-31T13:56:42.719Z,78.20
2018-12-31T13:59:10.119Z,78.70
2018-12-31T14:01:37.563Z,78.90
2018-12-31T14:04:05.009Z,78.90
2018-12-31T14:06:32.414Z,78.70
2018-12-31T14:08:59.858Z,78.40
2018-12-31T14:11:27.291Z,78.40
2018-12-31T14:13:55.016Z,78.20
2018-12-31T14:16:22.995Z,78.40
2018-12-31T14:18:50.451Z,79.10
2018-12-31T14:21:17.937Z,79.50
2018-12-31T14:23:45.470Z,78.70
2018-12-31T14:26:13.195Z,78.40
2018-12-31T14:28:40.679Z,79.00
2018-12-31T14:31:08.079Z,78.70
2018-12-31T14:33:35.505Z,78.80
2018-12-31T14:36:02.954Z,78.20
2018-12-31T14:38:30.352Z,78.30
2018-12-31T14:40:57.867Z,77.80
2018-12-31T14:43:25.332Z,78.20
2018-12-31T14:45:52.804Z,78.20
2018-12-31T14:48:20.541Z,77.80
2018-12-31T14:50:48.037Z,77.90
2018-12-31T14:53:15.875Z,77.60
2018-12-31T14:55:43.346Z,77.60
2018-12-31T14:58:12.946Z,77.10
2018-12-31T15:00:40.741Z,77.00
2018-12-31T15:03:08.171Z,77.20
2018-12-31T15:05:35.920Z,77.20
2018-12-31T15:08:03.406Z,77.10
2018-12-31T15:10:30.987Z,77.40
2018-12-31T15:12:58.408Z,77.40
2018-12-31T15:15:25.897Z,77.40
2018-12-31T15:17:53.649Z,77.30
2018-12-31T15:20:21.119Z,76.90
2018-12-31T15:22:48.552Z,76.80
2018-12-31T15:25:16.062Z,76.80
2018-12-31T15:27:43.531Z,77.50
2018-12-31T15:30:10.899Z,77.10
2018-12-31T15:32:38.374Z,77.20
2018-12-31T15:35:06.527Z,77.20
2018-12-31T15:37:33.978Z,77.30
2018-12-31T15:40:01.463Z,77.00
2018-12-31T15:42:29.002Z,76.90
2018-12-31T15:44:56.423Z,76.80
2018-12-31T15:47:23.913Z,77.00
2018-12-31T15:49:51.397Z,77.10
2018-12-31T15:52:19.539Z,77.20
2018-12-31T15:54:47.041Z,77.80
2018-12-31T15:57:14.534Z,77.30
2018-12-31T15:59:41.944Z,77.00
2018-12-31T16:02:09.400Z,77.00
2018-12-31T16:04:36.885Z,76.90
2018-12-31T16:07:04.638Z,76.90
2018-12-31T16:09:32.125Z,77.00
2018-12-31T16:11:59.612Z,77.30
2018-12-31T16:14:27.098Z,77.20
2018-12-31T16:16:54.519Z,76.80
2018-12-31T16:19:21.958Z,77.00
2018-12-31T16:21:49.458Z,77.00
2018-12-31T16:24:16.911Z,77.00
2018-12-31T16:26:44.353Z,77.10
2018-12-31T16:29:11.877Z,77.00
2018-12-31T16:31:39.375Z,77.20
2018-12-31T16:34:06.824Z,77.00
2018-12-31T16:36:34.221Z,77.20
2018-12-31T16:39:01.737Z,77.10
2018-12-31T16:41:29.240Z,77.50
2018-12-31T16:43:56.711Z,77.30
2018-12-31T16:46:24.143Z,77.20
2018-12-31T16:48:51.975Z,77.20
2018-12-31T16:51:19.730Z,77.20
2018-12-31T16:53:47.150Z,77.20
2018-12-31T16:56:14.573Z,77.30
2018-12-31T16:58:41.990Z,77.30
2018-12-31T17:01:09.730Z,77.20
2018-12-31T17:03:37.036Z,77.50
2018-12-31T17:06:04.882Z,77.30
2018-12-31T17:08:32.320Z,77.30
2018-12-31T17:10:59.721Z,78.20
2018-12-31T17:13:27.119Z,78.30
2018-12-31T17:15:54.544Z,78.60
2018-12-31T17:18:21.968Z,78.70
2018-12-31T17:20:49.403Z,78.80
2018-12-31T17:23:16.790Z,78.40
2018-12-31T17:25:44.232Z,78.30
2018-12-31T17:28:11.673Z,78.40
2018-12-31T17:30:39.095Z,78.20
2018-12-31T17:33:06.501Z,78.00
2018-12-31T17:35:33.921Z,77.80
2018-12-31T17:38:01.308Z,77.70
2018-12-31T17:40:28.726Z,77.60
2018-12-31T17:42:56.172Z,77.50
2018-12-31T17:45:23.967Z,78.10
2018-12-31T17:47:51.370Z,77.70
2018-12-31T17:50:19.635Z,78.40
2018-12-31T17:52:47.079Z,78.10
2018-12-31T17:55:14.855Z,78.40
2018-12-31T17:57:42.304Z,78.20
2018-12-31T18:00:10.043Z,78.60
2018-12-31T18:02:37.443Z,78.40
2018-12-31T18:05:04.890Z,78.70
2018-12-31T18:07:32.620Z,78.50
2018-12-31T18:09:59.935Z,78.40
2018-12-31T18:12:27.354Z,78.30
2018-12-31T18:14:54.719Z,78.10
2018-12-31T18:17:22.150Z,78.00
2018-12-31T18:19:49.563Z,77.80
2018-12-31T18:22:17.023Z,77.70
2018-12-31T18:24:44.744Z,77.60
2018-12-31T18:27:12.461Z,77.60
2018-12-31T18:29:39.921Z,77.90
2018-12-31T18:32:07.404Z,78.10
2018-12-31T18:34:34.850Z,78.20
2018-12-31T18:37:02.239Z,78.20
2018-12-31T18:39:29.711Z,78.10
2018-12-31T18:41:57.423Z,78.10
2018-12-31T18:44:24.874Z,78.00
2018-12-31T18:46:52.239Z,78.20
2018-12-31T18:49:19.660Z,78.20
2018-12-31T18:51:48.972Z,78.70
2018-12-31T18:54:16.313Z,78.80
2018-12-31T18:56:43.736Z,78.20
2018-12-31T18:59:11.159Z,78.20
2018-12-31T19:01:38.646Z,78.50
2018-12-31T19:04:06.055Z,78.90
2018-12-31T19:06:33.501Z,78.60
2018-12-31T19:09:01.192Z,78.30
2018-12-31T19:11:28.630Z,78.10
2018-12-31T19:13:56.360Z,78.30
2018-12-31T19:16:24.072Z,78.30
2018-12-31T19:18:51.558Z,78.30
2018-12-31T19:21:18.930Z,78.10
2018-12-31T19:23:46.385Z,78.60
2018-12-31T19:26:13.781Z,79.10
2018-12-31T19:28:41.222Z,79.20
2018-12-31T19:31:08.627Z,79.60
2018-12-31T19:33:36.605Z,79.50
2018-12-31T19:36:04.055Z,79.00
2018-12-31T19:38:32.262Z,78.70
2018-12-31T19:40:59.642Z,79.00
2018-12-31T19:43:27.072Z,78.90
2018-12-31T19:45:54.798Z,78.40
2018-12-31T19:48:22.213Z,78.10
2018-12-31T19:50:49.679Z,78.70
2018-12-31T19:53:17.326Z,79.40
2018-12-31T19:55:44.728Z,79.80
2018-12-31T19:58:12.130Z,79.20
2018-12-31T20:00:39.540Z,79.20
2018-12-31T20:03:06.925Z,79.00
2018-12-31T20:05:34.248Z,79.10
2018-12-31T20:08:01.722Z,78.90
2018-12-31T20:10:29.161Z,79.00
2018-12-31T20:12:56.546Z,78.60
2018-12-31T20:15:23.952Z,78.80
2018-12-31T20:17:51.279Z,79.10
2018-12-31T20:20:18.711Z,79.70
2018-12-31T20:22:46.090Z,80.60
2018-12-31T20:25:13.525Z,80.70
2018-12-31T20:27:41.265Z,79.70
2018-12-31T20:30:08.668Z,79.40
2018-12-31T20:32:36.102Z,79.30
2018-12-31T20:35:03.513Z,79.20
2018-12-31T20:37:31.237Z,78.80
2018-12-31T20:39:58.921Z,78.80
2018-12-31T20:42:26.327Z,80.20
2018-12-31T20:44:53.746Z,80.50
2018-12-31T20:47:21.177Z,79.80
2018-12-31T20:49:48.679Z,79.50
2018-12-31T20:52:16.081Z,79.00
2018-12-31T20:54:43.505Z,79.30
2018-12-31T20:57:10.955Z,79.50
2018-12-31T20:59:38.398Z,79.30
2018-12-31T21:02:05.816Z,80.40
2018-12-31T21:04:33.262Z,80.90
2018-12-31T21:07:00.727Z,80.30
2018-12-31T21:09:28.972Z,79.60
2018-12-31T21:11:56.862Z,79.50
2018-12-31T21:14:24.264Z,79.90
2018-12-31T21:16:51.666Z,79.40
2018-12-31T21:19:19.110Z,78.70
2018-12-31T21:21:46.834Z,79.10
2018-12-31T21:24:14.282Z,79.60
2018-12-31T21:26:41.705Z,79.60
2018-12-31T21:29:09.154Z,78.90
2018-12-31T21:31:36.556Z,79.30
2018-12-31T21:34:04.052Z,79.70
2018-12-31T21:36:31.978Z,79.50
2018-12-31T21:38:59.461Z,79.30
2018-12-31T21:41:26.869Z,79.60
2018-12-31T21:43:54.332Z,79.10
2018-12-31T21:46:21.781Z,79.50
2018-12-31T21:48:49.202Z,80.50
2018-12-31T21:51:17.128Z,80.30
2018-12-31T21:53:44.594Z,80.50
2018-12-31T21:56:12.023Z,80.60
2018-12-31T21:58:39.456Z,80.50
2018-12-31T22:01:06.897Z,80.80
2018-12-31T22:03:34.318Z,80.90
2018-12-31T22:06:02.341Z,82.80
2018-12-31T22:08:29.758Z,81.90
2018-12-31T22:10:57.161Z,81.30
2018-12-31T22:13:24.571Z,80.30
2018-12-31T22:15:51.995Z,79.70
2018-12-31T22:18:19.440Z,80.90
2018-12-31T22:20:47.223Z,80.00
2018-12-31T22:23:14.638Z,79.80
2018-12-31T22:25:42.070Z,79.30
2018-12-31T22:28:09.484Z,78.80
2018-12-31T22:30:36.867Z,78.50
2018-12-31T22:33:04.253Z,78.40
2018-12-31T22:35:31.754Z,78.70
2018-12-31T22:37:59.161Z,78.50
2018-12-31T22:40:26.877Z,79.80
2018-12-31T22:42:54.259Z,79.70
2018-12-31T22:45:21.665Z,80.00
2018-12-31T22:47:49.103Z,80.40
2018-12-31T22:50:16.520Z,79.90
2018-12-31T22:52:43.806Z,79.70
2018-12-31T22:55:11.214Z,79.60
2018-12-31T22:57:39.202Z,79.60
2018-12-31T23:00:08.423Z,79.30
2018-12-31T23:02:36.210Z,79.40
2018-12-31T23:05:04.932Z,79.90
2018-12-31T23:07:32.359Z,79.30
2018-12-31T23:09:59.796Z,80.10
2018-12-31T23:12:27.213Z,79.50
2018-12-31T23:14:55.702Z,80.00
2018-12-31T23:17:23.111Z,79.50
2018-12-31T23:19:50.565Z,78.50
2018-12-31T23:22:17.994Z,78.70
2018-12-31T23:24:45.476Z,79.00
2018-12-31T23:27:12.911Z,78.60
2018-12-31T23:29:40.670Z,78.50
2018-12-31T23:32:08.222Z,78.40
2018-12-31T23:34:36.117Z,78.10
2018-12-31T23:37:03.682Z,77.70
2018-12-31T23:39:31.144Z,78.20
2018-12-31T23:41:58.601Z,79.00
2018-12-31T23:44:26.125Z,78.60
2018-12-31T23:46:53.534Z,78.50
2018-12-31T23:49:20.994Z,78.40
2018-12-31T23:51:48.444Z,78.50
2018-12-31T23:54:15.882Z,78.30
2018-12-31T23:56:43.303Z,78.30
2018-12-31T23:59:11.173Z,78.20
